createdAt,value
2017-02-06T00:00:15.554Z,25.85
2017-02-06T00:01:26.373Z,25.66
2017-02-06T00:02:37.093Z,25.66
2017-02-06T00:03:47.808Z,25.66
2017-02-06T00:04:58.540Z,25.66
2017-02-06T00:06:09.506Z,25.46
2017-02-06T00:07:20.207Z,25.75
2017-02-06T00:08:30.786Z,25.56
2017-02-06T00:09:41.112Z,25.75
2017-02-06T00:10:51.830Z,25.95
2017-02-06T00:12:02.865Z,25.66
2017-02-06T00:13:13.185Z,25.75
2017-02-06T00:14:22.723Z,25.66
2017-02-06T00:15:33.457Z,25.95
2017-02-06T00:16:43.375Z,25.85
2017-02-06T00:17:54.329Z,25.85
2017-02-06T00:19:05.049Z,25.75
2017-02-06T00:20:15.422Z,25.66
2017-02-06T00:21:26.137Z,25.95
2017-02-06T00:22:36.069Z,25.75
2017-02-06T00:23:45.848Z,25.56
2017-02-06T00:24:56.562Z,25.56
2017-02-06T00:26:06.892Z,25.56
2017-02-06T00:27:17.220Z,25.46
2017-02-06T00:28:27.154Z,25.56
2017-02-06T00:29:37.330Z,25.95
2017-02-06T00:30:48.050Z,25.85
2017-02-06T00:31:58.384Z,26.04
2017-02-06T00:33:09.090Z,25.56
2017-02-06T00:34:19.400Z,25.56
2017-02-06T00:35:29.986Z,25.56
2017-02-06T00:36:40.696Z,25.66
2017-02-06T00:37:50.630Z,25.46
2017-02-06T00:39:01.000Z,25.95
2017-02-06T00:40:11.714Z,25.56
2017-02-06T00:41:21.938Z,25.56
2017-02-06T00:42:32.691Z,25.75
2017-02-06T00:43:43.005Z,25.85
2017-02-06T00:44:53.328Z,25.66
2017-02-06T00:46:03.650Z,25.56
2017-02-06T00:47:14.269Z,25.56
2017-02-06T00:48:24.196Z,25.37
2017-02-06T00:49:34.533Z,25.56
2017-02-06T00:50:45.236Z,25.56
2017-02-06T00:51:55.553Z,25.95
2017-02-06T00:53:05.779Z,25.84
2017-02-06T00:54:16.597Z,25.85
2017-02-06T00:55:26.137Z,25.56
2017-02-06T00:56:36.482Z,25.66
2017-02-06T00:57:46.853Z,25.46
2017-02-06T00:58:57.810Z,25.56
2017-02-06T01:00:08.134Z,25.56
2017-02-06T01:01:18.732Z,25.56
2017-02-06T01:02:29.077Z,25.75
2017-02-06T01:03:39.788Z,25.66
2017-02-06T01:04:50.357Z,25.56
2017-02-06T01:06:00.674Z,25.37
2017-02-06T01:07:11.397Z,25.46
2017-02-06T01:08:21.323Z,25.37
2017-02-06T01:09:31.656Z,25.56
2017-02-06T01:10:42.227Z,25.56
2017-02-06T01:11:52.542Z,25.56
2017-02-06T01:13:03.253Z,25.46
2017-02-06T01:14:13.980Z,25.46
2017-02-06T01:15:24.315Z,25.18
2017-02-06T01:16:35.339Z,25.18
2017-02-06T01:17:45.269Z,25.27
2017-02-06T01:18:55.592Z,25.18
2017-02-06T01:20:05.921Z,25.18
2017-02-06T01:21:16.241Z,25.56
2017-02-06T01:22:27.249Z,25.46
2017-02-06T01:23:37.178Z,25.37
2017-02-06T01:24:47.503Z,25.46
2017-02-06T01:25:58.218Z,25.09
2017-02-06T01:27:08.544Z,25.27
2017-02-06T01:28:19.108Z,25.18
2017-02-06T01:29:29.015Z,25.46
2017-02-06T01:30:39.338Z,25.66
2017-02-06T01:31:50.052Z,25.55
2017-02-06T01:32:59.975Z,25.46
2017-02-06T01:34:10.195Z,25.45
2017-02-06T01:35:20.919Z,25.46
2017-02-06T01:36:31.237Z,25.37
2017-02-06T01:37:41.553Z,25.46
2017-02-06T01:38:52.263Z,25.18
2017-02-06T01:40:02.890Z,25.37
2017-02-06T01:41:13.602Z,25.09
2017-02-06T01:42:24.316Z,24.99
2017-02-06T01:43:35.030Z,25.09
2017-02-06T01:44:45.761Z,25.18
2017-02-06T01:45:56.724Z,25.09
2017-02-06T01:47:07.033Z,24.99
2017-02-06T01:48:17.344Z,24.99
2017-02-06T01:49:27.670Z,25.09
2017-02-06T01:50:37.590Z,24.99
2017-02-06T01:51:47.760Z,25.18
2017-02-06T01:52:58.528Z,24.99
2017-02-06T01:54:08.864Z,25.18
2017-02-06T01:55:18.828Z,24.8
2017-02-06T01:56:29.145Z,25.27
2017-02-06T01:57:40.105Z,24.99
2017-02-06T01:58:50.415Z,25.18
2017-02-06T02:00:00.739Z,25.09
2017-02-06T02:01:10.265Z,25.18
2017-02-06T02:02:20.988Z,25.18
2017-02-06T02:03:32.045Z,25.56
2017-02-06T02:04:41.974Z,25.27
2017-02-06T02:05:51.900Z,24.99
2017-02-06T02:07:02.220Z,25.27
2017-02-06T02:08:12.534Z,25.27
2017-02-06T02:09:23.161Z,24.98
2017-02-06T02:10:33.883Z,25.16
2017-02-06T02:11:43.810Z,25.07
2017-02-06T02:12:54.540Z,25.16
2017-02-06T02:14:04.851Z,25.36
2017-02-06T02:15:15.867Z,25.18
2017-02-06T02:16:25.784Z,25.18
2017-02-06T02:17:36.092Z,25.09
2017-02-06T02:18:46.018Z,25.56
2017-02-06T02:19:56.351Z,24.98
2017-02-06T02:21:06.130Z,25.27
2017-02-06T02:22:16.443Z,25.07
2017-02-06T02:23:26.773Z,24.98
2017-02-06T02:24:37.480Z,25.09
2017-02-06T02:25:47.803Z,24.99
2017-02-06T02:26:58.424Z,25.16
2017-02-06T02:28:09.130Z,25.27
2017-02-06T02:29:19.045Z,25.37
2017-02-06T02:30:29.771Z,25.09
2017-02-06T02:31:40.444Z,24.79
2017-02-06T02:32:50.685Z,25.09
2017-02-06T02:34:01.004Z,25.18
2017-02-06T02:35:11.725Z,24.7
2017-02-06T02:36:22.086Z,24.89
2017-02-06T02:37:32.399Z,24.8
2017-02-06T02:38:43.020Z,25.18
2017-02-06T02:39:53.739Z,24.7
2017-02-06T02:41:04.050Z,24.8
2017-02-06T02:42:14.363Z,24.69
2017-02-06T02:43:24.674Z,24.7
2017-02-06T02:44:35.291Z,25.27
2017-02-06T02:45:46.005Z,24.98
2017-02-06T02:46:56.722Z,25.16
2017-02-06T02:48:07.033Z,25.36
2017-02-06T02:49:17.353Z,25.07
2017-02-06T02:50:27.957Z,25.16
2017-02-06T02:51:38.268Z,25.45
2017-02-06T02:52:48.975Z,25.07
2017-02-06T02:53:59.292Z,24.69
2017-02-06T02:55:09.612Z,24.88
2017-02-06T02:56:20.622Z,25.16
2017-02-06T02:57:31.331Z,25.26
2017-02-06T02:58:41.271Z,25.26
2017-02-06T02:59:51.590Z,24.69
2017-02-06T03:01:02.309Z,24.98
2017-02-06T03:02:12.878Z,24.88
2017-02-06T03:03:23.245Z,24.98
2017-02-06T03:04:33.218Z,24.88
2017-02-06T03:05:43.928Z,24.79
2017-02-06T03:06:54.247Z,25.07
2017-02-06T03:08:05.259Z,24.88
2017-02-06T03:09:15.577Z,25.07
2017-02-06T03:10:26.295Z,24.69
2017-02-06T03:11:37.016Z,24.89
2017-02-06T03:12:47.334Z,25.07
2017-02-06T03:13:58.105Z,24.69
2017-02-06T03:15:08.423Z,24.88
2017-02-06T03:16:19.130Z,24.88
2017-02-06T03:17:29.851Z,24.88
2017-02-06T03:18:40.179Z,25.07
2017-02-06T03:19:50.751Z,24.89
2017-02-06T03:21:00.282Z,25.07
2017-02-06T03:22:10.604Z,25.07
2017-02-06T03:23:20.918Z,24.88
2017-02-06T03:24:31.235Z,24.98
2017-02-06T03:25:42.251Z,24.59
2017-02-06T03:26:52.970Z,24.79
2017-02-06T03:28:02.892Z,24.69
2017-02-06T03:29:13.597Z,24.79
2017-02-06T03:30:23.967Z,25.07
2017-02-06T03:31:34.546Z,24.88
2017-02-06T03:32:44.475Z,24.69
2017-02-06T03:33:54.393Z,24.98
2017-02-06T03:35:05.097Z,24.88
2017-02-06T03:36:15.436Z,24.98
2017-02-06T03:37:25.996Z,24.98
2017-02-06T03:38:36.306Z,24.88
2017-02-06T03:39:47.017Z,24.88
2017-02-06T03:40:57.729Z,24.88
2017-02-06T03:42:07.277Z,24.59
2017-02-06T03:43:18.274Z,24.79
2017-02-06T03:44:28.191Z,24.88
2017-02-06T03:45:38.904Z,24.5
2017-02-06T03:46:49.406Z,24.59
2017-02-06T03:47:59.727Z,24.69
2017-02-06T03:49:10.742Z,24.69
2017-02-06T03:50:20.264Z,24.69
2017-02-06T03:51:30.979Z,24.59
2017-02-06T03:52:41.297Z,24.69
2017-02-06T03:53:51.609Z,24.88
2017-02-06T03:55:02.627Z,24.79
2017-02-06T03:56:12.946Z,24.69
2017-02-06T03:57:23.260Z,24.4
2017-02-06T03:58:33.964Z,24.3
2017-02-06T03:59:44.274Z,24.3
2017-02-06T04:00:55.227Z,24.69
2017-02-06T04:02:05.943Z,24.59
2017-02-06T04:03:16.271Z,24.79
2017-02-06T04:04:26.588Z,24.59
2017-02-06T04:05:36.908Z,24.59
2017-02-06T04:06:47.516Z,24.4
2017-02-06T04:07:57.051Z,24.3
2017-02-06T04:09:07.377Z,24.5
2017-02-06T04:10:17.938Z,24.79
2017-02-06T04:11:28.266Z,24.4
2017-02-06T04:12:38.837Z,24.21
2017-02-06T04:13:48.783Z,24.4
2017-02-06T04:14:59.490Z,24.4
2017-02-06T04:16:09.410Z,24.3
2017-02-06T04:17:20.120Z,24.11
2017-02-06T04:18:31.084Z,24.3
2017-02-06T04:19:41.010Z,23.92
2017-02-06T04:20:51.356Z,24.3
2017-02-06T04:22:02.089Z,24.5
2017-02-06T04:23:12.814Z,24.5
2017-02-06T04:24:23.784Z,24.5
2017-02-06T04:25:34.120Z,24.4
2017-02-06T04:26:43.650Z,24.21
2017-02-06T04:27:53.964Z,24.4
2017-02-06T04:29:03.905Z,24.4
2017-02-06T04:30:14.860Z,24.4
2017-02-06T04:31:24.786Z,24.21
2017-02-06T04:32:34.715Z,24.02
2017-02-06T04:33:45.417Z,23.92
2017-02-06T04:34:55.733Z,24.21
2017-02-06T04:36:06.352Z,24.11
2017-02-06T04:37:16.677Z,24.3
2017-02-06T04:38:26.990Z,24.11
2017-02-06T04:39:37.312Z,24.02
2017-02-06T04:40:48.025Z,24.21
2017-02-06T04:41:59.084Z,23.83
2017-02-06T04:43:09.419Z,23.92
2017-02-06T04:44:20.136Z,24.3
2017-02-06T04:45:30.453Z,24.11
2017-02-06T04:46:40.371Z,24.02
2017-02-06T04:47:50.994Z,24.21
2017-02-06T04:49:01.324Z,24.11
2017-02-06T04:50:11.638Z,23.73
2017-02-06T04:51:22.363Z,24.11
2017-02-06T04:52:33.085Z,24.02
2017-02-06T04:53:44.114Z,24.21
2017-02-06T04:54:54.450Z,23.83
2017-02-06T04:56:04.771Z,24.21
2017-02-06T04:57:15.087Z,23.73
2017-02-06T04:58:25.401Z,23.83
2017-02-06T04:59:36.367Z,24.21
2017-02-06T05:00:47.085Z,24.11
2017-02-06T05:01:57.800Z,24.11
2017-02-06T05:03:07.724Z,23.92
2017-02-06T05:04:18.448Z,24.11
2017-02-06T05:05:29.013Z,23.63
2017-02-06T05:06:39.327Z,23.73
2017-02-06T05:07:50.038Z,24.11
2017-02-06T05:09:00.352Z,24.02
2017-02-06T05:10:10.276Z,23.92
2017-02-06T05:11:20.889Z,24.02
2017-02-06T05:12:31.597Z,23.83
2017-02-06T05:13:42.310Z,23.73
2017-02-06T05:14:53.026Z,23.73
2017-02-06T05:16:03.737Z,23.63
2017-02-06T05:17:14.754Z,23.63
2017-02-06T05:18:25.075Z,23.54
2017-02-06T05:19:35.781Z,23.54
2017-02-06T05:20:45.702Z,23.73
2017-02-06T05:21:55.635Z,23.54
2017-02-06T05:23:05.862Z,23.44
2017-02-06T05:24:16.195Z,23.06
2017-02-06T05:25:26.515Z,23.16
2017-02-06T05:26:37.226Z,23.35
2017-02-06T05:27:47.536Z,23.25
2017-02-06T05:28:58.505Z,23.16
2017-02-06T05:30:08.438Z,23.16
2017-02-06T05:31:18.759Z,22.77
2017-02-06T05:32:29.483Z,23.16
2017-02-06T05:33:40.192Z,23.16
2017-02-06T05:34:51.152Z,23.06
2017-02-06T05:36:01.473Z,23.06
2017-02-06T05:37:11.005Z,22.97
2017-02-06T05:38:20.538Z,22.97
2017-02-06T05:39:30.866Z,23.06
2017-02-06T05:40:41.835Z,23.06
2017-02-06T05:41:52.548Z,22.87
2017-02-06T05:43:03.274Z,22.97
2017-02-06T05:44:13.206Z,22.87
2017-02-06T05:45:23.526Z,22.87
2017-02-06T05:46:34.494Z,23.06
2017-02-06T05:47:44.814Z,22.97
2017-02-06T05:48:54.740Z,22.87
2017-02-06T05:50:05.061Z,22.87
2017-02-06T05:51:15.387Z,22.68
2017-02-06T05:52:26.358Z,22.87
2017-02-06T05:53:36.679Z,22.68
2017-02-06T05:54:46.597Z,22.77
2017-02-06T05:55:57.316Z,22.87
2017-02-06T05:57:07.633Z,22.87
2017-02-06T05:58:18.641Z,22.68
2017-02-06T05:59:29.406Z,22.58
2017-02-06T06:00:40.120Z,22.58
2017-02-06T06:01:50.836Z,22.68
2017-02-06T06:03:01.169Z,22.58
2017-02-06T06:04:11.754Z,22.68
2017-02-06T06:05:21.682Z,22.68
2017-02-06T06:06:32.401Z,22.77
2017-02-06T06:07:43.102Z,22.49
2017-02-06T06:08:53.438Z,22.49
2017-02-06T06:10:04.021Z,22.39
2017-02-06T06:11:14.344Z,22.68
2017-02-06T06:12:23.870Z,22.68
2017-02-06T06:13:33.788Z,22.39
2017-02-06T06:14:44.523Z,22.58
2017-02-06T06:15:55.159Z,22.58
2017-02-06T06:17:05.093Z,22.39
2017-02-06T06:18:15.794Z,22.3
2017-02-06T06:19:26.532Z,22.58
2017-02-06T06:20:37.263Z,22.01
2017-02-06T06:21:48.284Z,22.11
2017-02-06T06:22:58.217Z,21.81
2017-02-06T06:24:08.544Z,22.11
2017-02-06T06:25:19.259Z,22.11
2017-02-06T06:26:29.576Z,21.81
2017-02-06T06:27:40.553Z,22.2
2017-02-06T06:28:51.269Z,21.81
2017-02-06T06:30:00.802Z,22.11
2017-02-06T06:31:11.129Z,21.81
2017-02-06T06:32:21.494Z,21.91
2017-02-06T06:33:32.470Z,21.91
2017-02-06T06:34:43.198Z,21.91
2017-02-06T06:35:53.577Z,21.72
2017-02-06T06:37:04.311Z,21.81
2017-02-06T06:38:14.643Z,22.01
2017-02-06T06:39:24.851Z,21.91
2017-02-06T06:40:35.170Z,21.81
2017-02-06T06:41:45.898Z,21.53
2017-02-06T06:42:55.842Z,21.62
2017-02-06T06:44:06.559Z,21.91
2017-02-06T06:45:17.181Z,21.72
2017-02-06T06:46:27.107Z,21.44
2017-02-06T06:47:36.656Z,21.44
2017-02-06T06:48:47.009Z,21.53
2017-02-06T06:49:57.734Z,21.44
2017-02-06T06:51:08.324Z,21.53
2017-02-06T06:52:18.661Z,21.44
2017-02-06T06:53:29.393Z,21.34
2017-02-06T06:54:40.151Z,21.53
2017-02-06T06:55:50.880Z,21.62
2017-02-06T06:57:01.083Z,21.44
2017-02-06T06:58:10.606Z,21.53
2017-02-06T06:59:20.135Z,21.62
2017-02-06T07:00:30.195Z,21.62
2017-02-06T07:01:40.528Z,21.72
2017-02-06T07:02:51.113Z,21.53
2017-02-06T07:04:01.045Z,21.62
2017-02-06T07:05:11.373Z,21.34
2017-02-06T07:06:21.681Z,21.44
2017-02-06T07:07:32.406Z,21.44
2017-02-06T07:08:43.382Z,21.72
2017-02-06T07:09:53.714Z,21.53
2017-02-06T07:11:04.034Z,21.81
2017-02-06T07:12:14.351Z,21.62
2017-02-06T07:13:24.284Z,21.81
2017-02-06T07:14:34.886Z,21.53
2017-02-06T07:15:45.600Z,21.62
2017-02-06T07:16:55.933Z,21.44
2017-02-06T07:18:06.297Z,21.81
2017-02-06T07:19:17.040Z,21.53
2017-02-06T07:20:27.619Z,21.62
2017-02-06T07:21:38.340Z,22.01
2017-02-06T07:22:48.682Z,21.81
2017-02-06T07:23:59.032Z,21.81
2017-02-06T07:25:09.757Z,21.72
2017-02-06T07:26:20.745Z,21.72
2017-02-06T07:27:31.504Z,21.72
2017-02-06T07:28:42.230Z,21.91
2017-02-06T07:29:52.207Z,21.81
2017-02-06T07:31:02.966Z,21.81
2017-02-06T07:32:13.967Z,22.01
2017-02-06T07:33:24.307Z,21.81
2017-02-06T07:34:34.659Z,21.72
2017-02-06T07:35:45.379Z,21.91
2017-02-06T07:36:55.306Z,22.2
2017-02-06T07:38:06.188Z,22.01
2017-02-06T07:39:15.751Z,22.2
2017-02-06T07:40:26.088Z,21.91
2017-02-06T07:41:36.838Z,21.81
2017-02-06T07:42:47.571Z,22.2
2017-02-06T07:43:58.147Z,22.01
2017-02-06T07:45:08.512Z,21.72
2017-02-06T07:46:18.896Z,22.01
2017-02-06T07:47:28.865Z,22.11
2017-02-06T07:48:38.844Z,22.01
2017-02-06T07:49:49.901Z,22.2
2017-02-06T07:51:00.223Z,22.11
2017-02-06T07:52:10.953Z,21.81
2017-02-06T07:53:21.283Z,22.01
2017-02-06T07:54:31.604Z,22.11
2017-02-06T07:55:42.176Z,22.3
2017-02-06T07:56:52.512Z,22.01
2017-02-06T07:58:02.050Z,22.11
2017-02-06T07:59:12.787Z,22.11
2017-02-06T08:00:23.516Z,21.81
2017-02-06T08:01:34.145Z,21.44
2017-02-06T08:02:44.076Z,21.62
2017-02-06T08:03:54.395Z,21.72
2017-02-06T08:05:04.720Z,21.62
2017-02-06T08:06:15.056Z,21.44
2017-02-06T08:07:25.676Z,21.64
2017-02-06T08:08:36.416Z,21.53
2017-02-06T08:09:47.138Z,21.81
2017-02-06T08:10:57.459Z,21.53
2017-02-06T08:12:07.783Z,21.53
2017-02-06T08:13:17.177Z,21.81
2017-02-06T08:14:27.101Z,21.53
2017-02-06T08:15:37.830Z,21.62
2017-02-06T08:16:48.160Z,21.44
2017-02-06T08:17:58.112Z,21.53
2017-02-06T08:19:09.093Z,21.53
2017-02-06T08:20:19.472Z,21.62
2017-02-06T08:21:29.422Z,21.72
2017-02-06T08:22:39.360Z,21.62
2017-02-06T08:23:50.076Z,21.91
2017-02-06T08:25:00.348Z,21.91
2017-02-06T08:26:10.684Z,22.01
2017-02-06T08:27:21.005Z,21.81
2017-02-06T08:28:30.947Z,21.81
2017-02-06T08:29:41.871Z,22.01
2017-02-06T08:30:52.854Z,21.72
2017-02-06T08:32:03.584Z,21.72
2017-02-06T08:33:13.913Z,22.3
2017-02-06T08:34:23.846Z,21.81
2017-02-06T08:35:33.778Z,21.91
2017-02-06T08:36:44.896Z,21.91
2017-02-06T08:37:55.222Z,21.72
2017-02-06T08:39:05.959Z,21.81
2017-02-06T08:40:16.284Z,21.62
2017-02-06T08:41:26.606Z,21.53
2017-02-06T08:42:37.593Z,21.44
2017-02-06T08:43:47.523Z,21.53
2017-02-06T08:44:57.880Z,21.62
2017-02-06T08:46:07.801Z,21.34
2017-02-06T08:47:18.133Z,21.53
2017-02-06T08:48:28.723Z,21.62
2017-02-06T08:49:39.478Z,21.53
2017-02-06T08:50:50.235Z,21.34
2017-02-06T08:52:00.975Z,21.62
2017-02-06T08:53:11.292Z,21.53
2017-02-06T08:54:21.515Z,21.62
2017-02-06T08:55:32.253Z,21.62
2017-02-06T08:56:42.214Z,21.44
2017-02-06T08:57:52.573Z,21.72
2017-02-06T08:59:02.951Z,21.53
2017-02-06T09:00:13.996Z,21.72
2017-02-06T09:01:24.390Z,21.62
2017-02-06T09:02:34.754Z,21.72
2017-02-06T09:03:45.545Z,21.53
2017-02-06T09:04:56.303Z,21.72
2017-02-06T09:06:06.512Z,21.34
2017-02-06T09:07:16.845Z,21.62
2017-02-06T09:08:26.932Z,21.62
2017-02-06T09:09:37.317Z,21.24
2017-02-06T09:10:47.488Z,21.53
2017-02-06T09:11:58.165Z,21.53
2017-02-06T09:13:08.526Z,21.53
2017-02-06T09:14:19.237Z,21.24
2017-02-06T09:15:29.979Z,21.34
2017-02-06T09:16:40.732Z,21.53
2017-02-06T09:17:51.310Z,21.44
2017-02-06T09:19:02.301Z,21.34
2017-02-06T09:20:13.025Z,21.24
2017-02-06T09:21:22.947Z,21.72
2017-02-06T09:22:32.878Z,21.44
2017-02-06T09:23:43.096Z,21.34
2017-02-06T09:24:52.682Z,21.44
2017-02-06T09:26:03.124Z,21.62
2017-02-06T09:27:13.858Z,21.15
2017-02-06T09:28:24.197Z,21.05
2017-02-06T09:29:35.177Z,21.53
2017-02-06T09:30:45.137Z,21.53
2017-02-06T09:31:55.461Z,21.44
2017-02-06T09:33:05.787Z,21.44
2017-02-06T09:34:16.122Z,21.24
2017-02-06T09:35:26.463Z,21.24
2017-02-06T09:36:37.517Z,21.34
2017-02-06T09:37:47.854Z,21.24
2017-02-06T09:38:58.190Z,21.24
2017-02-06T09:40:08.471Z,21.24
2017-02-06T09:41:19.217Z,21.24
2017-02-06T09:42:29.583Z,21.72
2017-02-06T09:43:40.312Z,21.53
2017-02-06T09:44:50.235Z,21.81
2017-02-06T09:46:00.507Z,21.62
2017-02-06T09:47:10.847Z,21.05
2017-02-06T09:48:21.198Z,21.62
2017-02-06T09:49:31.117Z,21.62
2017-02-06T09:50:41.044Z,21.81
2017-02-06T09:51:51.393Z,21.25
2017-02-06T09:53:02.136Z,21.54
2017-02-06T09:54:12.082Z,21.53
2017-02-06T09:55:22.013Z,21.62
2017-02-06T09:56:32.590Z,21.64
2017-02-06T09:57:42.942Z,21.54
2017-02-06T09:58:53.262Z,21.54
2017-02-06T10:00:03.202Z,21.06
2017-02-06T10:01:13.531Z,21.54
2017-02-06T10:02:24.511Z,21.25
2017-02-06T10:03:34.441Z,20.78
2017-02-06T10:04:44.763Z,21.35
2017-02-06T10:05:55.492Z,21.45
2017-02-06T10:07:05.818Z,21.64
2017-02-06T10:08:16.813Z,21.64
2017-02-06T10:09:26.751Z,21.25
2017-02-06T10:10:37.485Z,21.15
2017-02-06T10:11:48.225Z,21.25
2017-02-06T10:12:58.953Z,21.83
2017-02-06T10:14:09.939Z,21.34
2017-02-06T10:15:20.665Z,21.81
2017-02-06T10:16:30.982Z,22.01
2017-02-06T10:17:41.725Z,21.92
2017-02-06T10:18:52.454Z,21.83
2017-02-06T10:20:03.038Z,21.64
2017-02-06T10:21:13.355Z,22.02
2017-02-06T10:22:24.107Z,21.92
2017-02-06T10:23:33.649Z,22.02
2017-02-06T10:24:43.600Z,21.72
2017-02-06T10:25:54.200Z,22.11
2017-02-06T10:27:04.911Z,21.91
2017-02-06T10:28:14.437Z,21.91
2017-02-06T10:29:24.370Z,21.34
2017-02-06T10:30:35.106Z,21.54
2017-02-06T10:31:45.279Z,21.35
2017-02-06T10:32:56.015Z,21.06
2017-02-06T10:34:05.955Z,21.54
2017-02-06T10:35:15.913Z,21.15
2017-02-06T10:36:26.268Z,20.97
2017-02-06T10:37:37.307Z,21.06
2017-02-06T10:38:47.442Z,20.39
2017-02-06T10:39:58.203Z,20.2
2017-02-06T10:41:08.159Z,20.58
2017-02-06T10:42:18.915Z,20.68
2017-02-06T10:43:29.935Z,20.49
2017-02-06T10:44:40.667Z,20.49
2017-02-06T10:45:51.428Z,20.49
2017-02-06T10:47:02.174Z,20.2
2017-02-06T10:48:11.343Z,20.29
2017-02-06T10:49:22.010Z,20.58
2017-02-06T10:50:32.415Z,19.92
2017-02-06T10:51:42.360Z,20.49
2017-02-06T10:52:52.689Z,20.58
2017-02-06T10:54:03.042Z,20.58
2017-02-06T10:55:13.631Z,20.57
2017-02-06T10:56:24.418Z,20.01
2017-02-06T10:57:34.745Z,20.2
2017-02-06T10:58:45.497Z,20.49
2017-02-06T10:59:55.718Z,20.1
2017-02-06T11:01:06.059Z,20.29
2017-02-06T11:02:16.808Z,19.53
2017-02-06T11:03:26.809Z,20.01
2017-02-06T11:04:37.558Z,19.53
2017-02-06T11:05:47.755Z,19.62
2017-02-06T11:06:58.092Z,19.72
2017-02-06T11:08:08.441Z,19.53
2017-02-06T11:09:19.167Z,19.53
2017-02-06T11:10:29.913Z,19.34
2017-02-06T11:11:40.496Z,19.43
2017-02-06T11:12:50.858Z,19.15
2017-02-06T11:14:01.221Z,19.24
2017-02-06T11:15:11.548Z,19.15
2017-02-06T11:16:22.284Z,19.53
2017-02-06T11:17:32.892Z,19.15
2017-02-06T11:18:43.247Z,18.86
2017-02-06T11:19:53.176Z,18.86
2017-02-06T11:21:03.932Z,18.48
2017-02-06T11:22:14.284Z,18.76
2017-02-06T11:23:24.909Z,18.48
2017-02-06T11:24:34.847Z,18.38
2017-02-06T11:25:45.182Z,18.38
2017-02-06T11:26:55.532Z,18.48
2017-02-06T11:28:05.909Z,18.38
2017-02-06T11:29:16.995Z,18.48
2017-02-06T11:30:27.360Z,18.38
2017-02-06T11:31:37.306Z,18.38
2017-02-06T11:32:47.651Z,18.48
2017-02-06T11:33:58.380Z,18.48
2017-02-06T11:35:09.423Z,18.48
2017-02-06T11:36:19.767Z,18.48
2017-02-06T11:37:30.505Z,18.38
2017-02-06T11:38:41.228Z,18.29
2017-02-06T11:39:51.158Z,18.29
2017-02-06T11:41:01.812Z,18.19
2017-02-06T11:42:12.174Z,17.8
2017-02-06T11:43:22.921Z,17.8
2017-02-06T11:44:33.267Z,17.9
2017-02-06T11:45:43.637Z,17.61
2017-02-06T11:46:54.273Z,17.8
2017-02-06T11:48:04.602Z,17.61
2017-02-06T11:49:14.950Z,17.9
2017-02-06T11:50:25.740Z,17.52
2017-02-06T11:51:36.506Z,17.71
2017-02-06T11:52:47.092Z,17.71
2017-02-06T11:53:57.823Z,17.61
2017-02-06T11:55:08.147Z,17.52
2017-02-06T11:56:18.502Z,17.61
2017-02-06T11:57:28.836Z,17.52
2017-02-06T11:58:39.860Z,17.62
2017-02-06T11:59:50.625Z,17.43
2017-02-06T12:01:00.975Z,17.52
2017-02-06T12:02:10.918Z,17.14
2017-02-06T12:03:21.258Z,17.33
2017-02-06T12:04:31.441Z,17.43
2017-02-06T12:05:42.186Z,17.23
2017-02-06T12:06:52.531Z,17.33
2017-02-06T12:08:03.249Z,17.43
2017-02-06T12:09:13.982Z,17.52
2017-02-06T12:10:24.976Z,17.33
2017-02-06T12:11:35.710Z,17.04
2017-02-06T12:12:46.030Z,17.23
2017-02-06T12:13:56.774Z,16.85
2017-02-06T12:15:07.102Z,16.66
2017-02-06T12:16:17.680Z,16.94
2017-02-06T12:17:28.391Z,16.85
2017-02-06T12:18:39.114Z,16.66
2017-02-06T12:19:49.843Z,17.04
2017-02-06T12:20:59.774Z,16.85
2017-02-06T12:22:11.019Z,16.85
2017-02-06T12:23:21.764Z,16.85
2017-02-06T12:24:32.508Z,16.75
2017-02-06T12:25:42.860Z,16.75
2017-02-06T12:26:53.579Z,16.85
2017-02-06T12:28:04.600Z,16.56
2017-02-06T12:29:14.549Z,16.56
2017-02-06T12:30:25.291Z,16.37
2017-02-06T12:31:35.232Z,16.66
2017-02-06T12:32:45.947Z,16.75
2017-02-06T12:33:56.285Z,16.75
2017-02-06T12:35:06.999Z,16.47
2017-02-06T12:36:16.968Z,16.47
2017-02-06T12:37:27.703Z,16.56
2017-02-06T12:38:38.671Z,16.66
2017-02-06T12:39:49.012Z,16.27
2017-02-06T12:40:59.752Z,16.28
2017-02-06T12:42:10.094Z,16.47
2017-02-06T12:43:20.814Z,16.56
2017-02-06T12:44:31.416Z,16.66
2017-02-06T12:45:42.184Z,16.66
2017-02-06T12:46:52.506Z,17.05
2017-02-06T12:48:02.878Z,18.29
2017-02-06T12:49:13.700Z,18.96
2017-02-06T12:50:24.680Z,19.25
2017-02-06T12:51:35.012Z,19.54
2017-02-06T12:52:45.343Z,19.64
2017-02-06T12:53:55.687Z,19.64
2017-02-06T12:55:06.012Z,19.15
2017-02-06T12:56:17.352Z,19.53
2017-02-06T12:57:28.082Z,19.34
2017-02-06T12:58:38.808Z,19.15
2017-02-06T12:59:49.134Z,19.24
2017-02-06T13:00:59.460Z,19.05
2017-02-06T13:02:09.649Z,19.05
2017-02-06T13:03:19.611Z,19.15
2017-02-06T13:04:30.359Z,18.86
2017-02-06T13:05:40.297Z,19.15
2017-02-06T13:06:51.035Z,19.05
2017-02-06T13:08:01.763Z,19.05
2017-02-06T13:09:12.479Z,18.48
2017-02-06T13:10:22.040Z,18.67
2017-02-06T13:11:32.776Z,18.19
2017-02-06T13:12:43.514Z,18.67
2017-02-06T13:13:53.723Z,18.76
2017-02-06T13:15:04.460Z,18.86
2017-02-06T13:16:14.797Z,18.48
2017-02-06T13:17:25.127Z,18.67
2017-02-06T13:18:35.769Z,18.57
2017-02-06T13:19:46.531Z,18.86
2017-02-06T13:20:57.265Z,18.48
2017-02-06T13:22:08.058Z,18.76
2017-02-06T13:23:18.378Z,18.67
2017-02-06T13:24:28.948Z,18.86
2017-02-06T13:25:39.274Z,18.86
2017-02-06T13:26:49.629Z,18.86
2017-02-06T13:27:59.560Z,19.05
2017-02-06T13:29:09.507Z,18.96
2017-02-06T13:30:20.133Z,18.96
2017-02-06T13:31:30.484Z,18.96
2017-02-06T13:32:41.197Z,18.96
2017-02-06T13:33:51.968Z,18.86
2017-02-06T13:35:02.919Z,18.96
2017-02-06T13:36:13.600Z,18.96
2017-02-06T13:37:23.983Z,18.76
2017-02-06T13:38:34.318Z,18.76
2017-02-06T13:39:44.252Z,18.86
2017-02-06T13:40:53.814Z,18.96
2017-02-06T13:42:04.829Z,19.05
2017-02-06T13:43:15.643Z,18.86
2017-02-06T13:44:25.322Z,19.05
2017-02-06T13:45:36.067Z,18.57
2017-02-06T13:46:46.809Z,19.05
2017-02-06T13:47:57.377Z,19.05
2017-02-06T13:49:07.328Z,19.15
2017-02-06T13:50:17.296Z,19.15
2017-02-06T13:51:28.092Z,18.76
2017-02-06T13:52:38.829Z,18.86
2017-02-06T13:53:49.002Z,18.86
2017-02-06T13:54:58.557Z,18.86
2017-02-06T13:56:08.874Z,18.67
2017-02-06T13:57:19.222Z,18.57
2017-02-06T13:58:29.546Z,18.38
2017-02-06T13:59:40.576Z,18.48
2017-02-06T14:00:51.277Z,18.67
2017-02-06T14:02:02.005Z,18.86
2017-02-06T14:03:11.946Z,18.48
2017-02-06T14:04:22.670Z,18.67
2017-02-06T14:05:33.237Z,18.76
2017-02-06T14:06:43.561Z,19.24
2017-02-06T14:07:53.908Z,19.05
2017-02-06T14:09:04.233Z,18.96
2017-02-06T14:10:14.582Z,19.05
2017-02-06T14:11:25.440Z,19.05
2017-02-06T14:12:36.185Z,19.05
2017-02-06T14:13:46.931Z,18.96
2017-02-06T14:14:56.461Z,19.05
2017-02-06T14:16:07.201Z,19.24
2017-02-06T14:17:18.220Z,19.24
2017-02-06T14:18:28.960Z,19.24
2017-02-06T14:19:39.301Z,19.05
2017-02-06T14:20:49.244Z,19.15
2017-02-06T14:21:59.181Z,19.15
2017-02-06T14:23:09.365Z,19.34
2017-02-06T14:24:19.689Z,19.05
2017-02-06T14:25:29.270Z,19.43
2017-02-06T14:26:39.193Z,19.15
2017-02-06T14:27:48.823Z,18.67
2017-02-06T14:28:59.016Z,19.05
2017-02-06T14:30:09.339Z,19.24
2017-02-06T14:31:20.098Z,19.05
2017-02-06T14:32:30.425Z,18.76
2017-02-06T14:33:41.269Z,18.96
2017-02-06T14:34:51.870Z,19.15
2017-02-06T14:36:01.792Z,18.96
2017-02-06T14:37:12.151Z,18.86
2017-02-06T14:38:22.863Z,19.43
2017-02-06T14:39:33.193Z,19.05
2017-02-06T14:40:44.161Z,19.15
2017-02-06T14:41:54.489Z,18.57
2017-02-06T14:43:04.431Z,18.86
2017-02-06T14:44:14.744Z,19.15
2017-02-06T14:45:25.168Z,19.34
2017-02-06T14:46:35.762Z,19.15
2017-02-06T14:47:46.091Z,19.15
2017-02-06T14:48:56.819Z,19.43
2017-02-06T14:50:07.349Z,19.15
2017-02-06T14:51:17.663Z,19.24
2017-02-06T14:52:27.897Z,19.72
2017-02-06T14:53:38.220Z,19.53
2017-02-06T14:54:48.542Z,19.43
2017-02-06T14:55:58.473Z,19.34
2017-02-06T14:57:08.803Z,19.43
2017-02-06T14:58:19.788Z,19.62
2017-02-06T14:59:30.543Z,19.72
2017-02-06T15:00:41.254Z,19.82
2017-02-06T15:01:51.581Z,19.72
2017-02-06T15:03:01.912Z,19.62
2017-02-06T15:04:12.884Z,19.53
2017-02-06T15:05:23.208Z,19.62
2017-02-06T15:06:33.161Z,19.72
2017-02-06T15:07:43.471Z,19.53
2017-02-06T15:08:53.813Z,19.72